sensor_id;sensor_type;location;lat;lon;timestamp;P1;durP1;ratioP1;P2;durP2;ratioP2
74471;SDS011;62920;53.572;10.050;2023-10-09T00:00:30;4.05;;;1.50;;
74471;SDS011;62920;53.572;10.050;2023-10-09T00:02:59;5.55;;;1.77;;
74471;SDS011;62920;53.572;10.050;2023-10-09T00:05:26;4.30;;;1.52;;
74471;SDS011;62920;53.572;10.050;2023-10-09T00:11:11;3.10;;;1.33;;
74471;SDS011;62920;53.572;10.050;2023-10-09T00:13:43;4.32;;;1.48;;
74471;SDS011;62920;53.572;10.050;2023-10-09T00:16:22;3.72;;;1.10;;
74471;SDS011;62920;53.572;10.050;2023-10-09T00:19:05;3.72;;;1.40;;
74471;SDS011;62920;53.572;10.050;2023-10-09T00:21:49;6.68;;;1.70;;
74471;SDS011;62920;53.572;10.050;2023-10-09T00:24:15;5.22;;;1.50;;
74471;SDS011;62920;53.572;10.050;2023-10-09T00:26:49;4.93;;;1.33;;
74471;SDS011;62920;53.572;10.050;2023-10-09T00:29:26;3.90;;;1.40;;
74471;SDS011;62920;53.572;10.050;2023-10-09T00:31:58;6.00;;;1.40;;
74471;SDS011;62920;53.572;10.050;2023-10-09T00:34:38;5.35;;;1.70;;
74471;SDS011;62920;53.572;10.050;2023-10-09T00:37:07;5.40;;;1.42;;
74471;SDS011;62920;53.572;10.050;2023-10-09T00:39:41;9.68;;;2.03;;
74471;SDS011;62920;53.572;10.050;2023-10-09T00:42:10;4.00;;;1.48;;
74471;SDS011;62920;53.572;10.050;2023-10-09T00:44:40;6.07;;;2.05;;
74471;SDS011;62920;53.572;10.050;2023-10-09T00:47:11;4.72;;;1.55;;
74471;SDS011;62920;53.572;10.050;2023-10-09T00:50:01;5.93;;;1.73;;
74471;SDS011;62920;53.572;10.050;2023-10-09T00:52:39;6.25;;;1.85;;
74471;SDS011;62920;53.572;10.050;2023-10-09T00:55:08;7.47;;;1.58;;
74471;SDS011;62920;53.572;10.050;2023-10-09T00:57:39;5.05;;;1.70;;
74471;SDS011;62920;53.572;10.050;2023-10-09T01:00:06;4.07;;;1.45;;
74471;SDS011;62920;53.572;10.050;2023-10-09T01:02:49;7.47;;;2.00;;
74471;SDS011;62920;53.572;10.050;2023-10-09T01:05:26;6.20;;;1.60;;
74471;SDS011;62920;53.572;10.050;2023-10-09T01:07:53;7.22;;;1.42;;
74471;SDS011;62920;53.572;10.050;2023-10-09T01:10:23;5.32;;;1.45;;
74471;SDS011;62920;53.572;10.050;2023-10-09T01:12:50;5.53;;;1.80;;
74471;SDS011;62920;53.572;10.050;2023-10-09T01:15:20;7.75;;;1.50;;
74471;SDS011;62920;53.572;10.050;2023-10-09T01:18:02;4.22;;;1.55;;
74471;SDS011;62920;53.572;10.050;2023-10-09T01:20:27;3.75;;;1.40;;
74471;SDS011;62920;53.572;10.050;2023-10-09T01:23:00;5.00;;;1.80;;
74471;SDS011;62920;53.572;10.050;2023-10-09T01:25:26;6.07;;;1.30;;
74471;SDS011;62920;53.572;10.050;2023-10-09T01:28:04;5.45;;;1.98;;
74471;SDS011;62920;53.572;10.050;2023-10-09T01:30:29;5.03;;;1.75;;
74471;SDS011;62920;53.572;10.050;2023-10-09T01:32:58;3.92;;;1.63;;
74471;SDS011;62920;53.572;10.050;2023-10-09T01:35:31;4.90;;;1.90;;
74471;SDS011;62920;53.572;10.050;2023-10-09T01:37:58;5.50;;;1.40;;
74471;SDS011;62920;53.572;10.050;2023-10-09T01:40:24;4.47;;;1.60;;
74471;SDS011;62920;53.572;10.050;2023-10-09T01:43:02;3.92;;;1.50;;
74471;SDS011;62920;53.572;10.050;2023-10-09T01:45:29;5.60;;;1.77;;
74471;SDS011;62920;53.572;10.050;2023-10-09T01:47:54;3.80;;;1.60;;
74471;SDS011;62920;53.572;10.050;2023-10-09T01:50:20;4.00;;;1.35;;
74471;SDS011;62920;53.572;10.050;2023-10-09T01:52:57;6.35;;;1.60;;
74471;SDS011;62920;53.572;10.050;2023-10-09T01:55:26;4.72;;;1.70;;
74471;SDS011;62920;53.572;10.050;2023-10-09T01:57:59;5.57;;;1.65;;
74471;SDS011;62920;53.572;10.050;2023-10-09T02:00:30;6.88;;;1.75;;
74471;SDS011;62920;53.572;10.050;2023-10-09T02:03:00;3.97;;;1.55;;
74471;SDS011;62920;53.572;10.050;2023-10-09T02:05:29;5.53;;;1.70;;
74471;SDS011;62920;53.572;10.050;2023-10-09T02:07:58;3.10;;;1.48;;
74471;SDS011;62920;53.572;10.050;2023-10-09T02:10:24;8.10;;;2.10;;
74471;SDS011;62920;53.572;10.050;2023-10-09T02:12:49;7.47;;;1.80;;
74471;SDS011;62920;53.572;10.050;2023-10-09T02:18:06;6.95;;;1.75;;
74471;SDS011;62920;53.572;10.050;2023-10-09T02:23:30;6.50;;;1.70;;
74471;SDS011;62920;53.572;10.050;2023-10-09T02:26:15;3.42;;;1.50;;
74471;SDS011;62920;53.572;10.050;2023-10-09T02:28:50;7.60;;;1.63;;
74471;SDS011;62920;53.572;10.050;2023-10-09T02:31:39;6.45;;;1.77;;
74471;SDS011;62920;53.572;10.050;2023-10-09T02:34:11;4.55;;;1.40;;
74471;SDS011;62920;53.572;10.050;2023-10-09T02:36:37;5.68;;;1.80;;
74471;SDS011;62920;53.572;10.050;2023-10-09T02:39:13;5.57;;;1.40;;
74471;SDS011;62920;53.572;10.050;2023-10-09T02:41:57;7.18;;;1.50;;
74471;SDS011;62920;53.572;10.050;2023-10-09T02:46:57;3.80;;;1.15;;
74471;SDS011;62920;53.572;10.050;2023-10-09T02:49:30;6.30;;;1.63;;
74471;SDS011;62920;53.572;10.050;2023-10-09T02:51:55;10.82;;;2.10;;
74471;SDS011;62920;53.572;10.050;2023-10-09T02:54:21;4.85;;;1.60;;
74471;SDS011;62920;53.572;10.050;2023-10-09T02:56:47;5.13;;;1.58;;
74471;SDS011;62920;53.572;10.050;2023-10-09T02:59:20;6.10;;;1.67;;
74471;SDS011;62920;53.572;10.050;2023-10-09T03:01:47;5.72;;;1.63;;
74471;SDS011;62920;53.572;10.050;2023-10-09T03:04:13;5.28;;;1.60;;
74471;SDS011;62920;53.572;10.050;2023-10-09T03:09:18;8.93;;;1.70;;
74471;SDS011;62920;53.572;10.050;2023-10-09T03:11:51;3.75;;;1.10;;
74471;SDS011;62920;53.572;10.050;2023-10-09T03:14:25;7.30;;;1.50;;
74471;SDS011;62920;53.572;10.050;2023-10-09T03:16:55;7.30;;;1.55;;
74471;SDS011;62920;53.572;10.050;2023-10-09T03:19:27;4.25;;;1.50;;
74471;SDS011;62920;53.572;10.050;2023-10-09T03:21:53;5.82;;;1.67;;
74471;SDS011;62920;53.572;10.050;2023-10-09T03:24:19;6.13;;;1.13;;
74471;SDS011;62920;53.572;10.050;2023-10-09T03:26:47;4.43;;;1.52;;
74471;SDS011;62920;53.572;10.050;2023-10-09T03:29:13;6.40;;;1.38;;
74471;SDS011;62920;53.572;10.050;2023-10-09T03:31:39;3.47;;;1.50;;
74471;SDS011;62920;53.572;10.050;2023-10-09T03:34:07;3.92;;;1.30;;
74471;SDS011;62920;53.572;10.050;2023-10-09T03:36:35;3.00;;;1.30;;
74471;SDS011;62920;53.572;10.050;2023-10-09T03:39:04;5.00;;;1.50;;
74471;SDS011;62920;53.572;10.050;2023-10-09T03:41:43;4.50;;;1.48;;
74471;SDS011;62920;53.572;10.050;2023-10-09T03:44:12;6.82;;;1.83;;
74471;SDS011;62920;53.572;10.050;2023-10-09T03:46:43;3.60;;;1.08;;
74471;SDS011;62920;53.572;10.050;2023-10-09T03:49:09;4.22;;;1.10;;
74471;SDS011;62920;53.572;10.050;2023-10-09T03:51:36;6.75;;;1.30;;
74471;SDS011;62920;53.572;10.050;2023-10-09T03:54:02;4.82;;;1.20;;
74471;SDS011;62920;53.572;10.050;2023-10-09T03:56:32;3.83;;;1.30;;
74471;SDS011;62920;53.572;10.050;2023-10-09T03:59:00;4.35;;;1.17;;
74471;SDS011;62920;53.572;10.050;2023-10-09T04:01:29;4.30;;;1.20;;
74471;SDS011;62920;53.572;10.050;2023-10-09T04:03:57;4.53;;;1.30;;
74471;SDS011;62920;53.572;10.050;2023-10-09T04:06:27;5.32;;;1.60;;
74471;SDS011;62920;53.572;10.050;2023-10-09T04:09:07;4.03;;;1.50;;
74471;SDS011;62920;53.572;10.050;2023-10-09T04:11:45;7.88;;;1.38;;
74471;SDS011;62920;53.572;10.050;2023-10-09T04:14:22;3.92;;;1.35;;
74471;SDS011;62920;53.572;10.050;2023-10-09T04:16:57;7.05;;;1.60;;
74471;SDS011;62920;53.572;10.050;2023-10-09T04:19:31;9.18;;;1.83;;
74471;SDS011;62920;53.572;10.050;2023-10-09T04:22:13;4.22;;;1.23;;
74471;SDS011;62920;53.572;10.050;2023-10-09T04:24:51;4.78;;;1.15;;
74471;SDS011;62920;53.572;10.050;2023-10-09T04:27:16;3.47;;;1.08;;
74471;SDS011;62920;53.572;10.050;2023-10-09T04:29:42;4.35;;;1.50;;
74471;SDS011;62920;53.572;10.050;2023-10-09T04:32:12;3.40;;;1.35;;
74471;SDS011;62920;53.572;10.050;2023-10-09T04:34:41;5.25;;;1.60;;
74471;SDS011;62920;53.572;10.050;2023-10-09T04:37:14;3.65;;;1.00;;
74471;SDS011;62920;53.572;10.050;2023-10-09T04:39:40;3.85;;;1.35;;
74471;SDS011;62920;53.572;10.050;2023-10-09T04:42:37;3.92;;;1.40;;
74471;SDS011;62920;53.572;10.050;2023-10-09T04:45:05;2.17;;;1.15;;
74471;SDS011;62920;53.572;10.050;2023-10-09T04:47:34;3.83;;;1.35;;
74471;SDS011;62920;53.572;10.050;2023-10-09T04:50:10;4.15;;;1.33;;
74471;SDS011;62920;53.572;10.050;2023-10-09T04:52:40;5.30;;;1.20;;
74471;SDS011;62920;53.572;10.050;2023-10-09T04:55:06;5.03;;;1.50;;
74471;SDS011;62920;53.572;10.050;2023-10-09T04:57:45;4.90;;;1.50;;
74471;SDS011;62920;53.572;10.050;2023-10-09T05:00:15;5.70;;;1.45;;
74471;SDS011;62920;53.572;10.050;2023-10-09T05:02:51;4.93;;;1.52;;
74471;SDS011;62920;53.572;10.050;2023-10-09T05:05:43;5.90;;;1.55;;
74471;SDS011;62920;53.572;10.050;2023-10-09T05:08:15;6.45;;;1.52;;
74471;SDS011;62920;53.572;10.050;2023-10-09T05:10:59;5.45;;;1.50;;
74471;SDS011;62920;53.572;10.050;2023-10-09T05:13:25;2.75;;;0.82;;
74471;SDS011;62920;53.572;10.050;2023-10-09T05:16:03;3.38;;;1.30;;
74471;SDS011;62920;53.572;10.050;2023-10-09T05:18:38;3.70;;;1.30;;
74471;SDS011;62920;53.572;10.050;2023-10-09T05:21:03;4.57;;;1.23;;
74471;SDS011;62920;53.572;10.050;2023-10-09T05:23:52;5.25;;;1.50;;
74471;SDS011;62920;53.572;10.050;2023-10-09T05:26:36;7.25;;;2.15;;
74471;SDS011;62920;53.572;10.050;2023-10-09T05:29:23;4.85;;;1.40;;
74471;SDS011;62920;53.572;10.050;2023-10-09T05:31:58;6.32;;;1.52;;
74471;SDS011;62920;53.572;10.050;2023-10-09T05:34:40;4.55;;;1.40;;
74471;SDS011;62920;53.572;10.050;2023-10-09T05:37:29;4.75;;;1.20;;
74471;SDS011;62920;53.572;10.050;2023-10-09T05:40:02;5.18;;;1.38;;
74471;SDS011;62920;53.572;10.050;2023-10-09T05:42:40;7.25;;;1.40;;
74471;SDS011;62920;53.572;10.050;2023-10-09T05:45:09;8.45;;;1.60;;
74471;SDS011;62920;53.572;10.050;2023-10-09T05:48:00;4.35;;;1.13;;
74471;SDS011;62920;53.572;10.050;2023-10-09T05:50:29;3.97;;;1.42;;
74471;SDS011;62920;53.572;10.050;2023-10-09T05:52:55;5.32;;;1.60;;
74471;SDS011;62920;53.572;10.050;2023-10-09T05:55:22;3.47;;;1.17;;
74471;SDS011;62920;53.572;10.050;2023-10-09T06:00:25;6.47;;;1.60;;
74471;SDS011;62920;53.572;10.050;2023-10-09T06:03:10;5.78;;;1.45;;
74471;SDS011;62920;53.572;10.050;2023-10-09T06:05:45;5.85;;;1.38;;
74471;SDS011;62920;53.572;10.050;2023-10-09T06:08:30;4.43;;;1.67;;
74471;SDS011;62920;53.572;10.050;2023-10-09T06:11:08;5.18;;;1.83;;
74471;SDS011;62920;53.572;10.050;2023-10-09T06:13:53;6.47;;;2.03;;
74471;SDS011;62920;53.572;10.050;2023-10-09T06:16:29;4.65;;;2.20;;
74471;SDS011;62920;53.572;10.050;2023-10-09T06:19:04;4.22;;;1.35;;
74471;SDS011;62920;53.572;10.050;2023-10-09T06:21:33;7.72;;;2.47;;
74471;SDS011;62920;53.572;10.050;2023-10-09T06:24:24;7.18;;;2.20;;
74471;SDS011;62920;53.572;10.050;2023-10-09T06:27:06;6.40;;;2.92;;
74471;SDS011;62920;53.572;10.050;2023-10-09T06:29:31;8.02;;;2.08;;
74471;SDS011;62920;53.572;10.050;2023-10-09T06:32:07;6.55;;;1.70;;
74471;SDS011;62920;53.572;10.050;2023-10-09T06:34:45;6.35;;;2.05;;
74471;SDS011;62920;53.572;10.050;2023-10-09T06:37:16;8.65;;;1.77;;
74471;SDS011;62920;53.572;10.050;2023-10-09T06:39:47;6.80;;;1.98;;
74471;SDS011;62920;53.572;10.050;2023-10-09T06:42:35;4.78;;;1.50;;
74471;SDS011;62920;53.572;10.050;2023-10-09T06:45:06;4.75;;;1.70;;
74471;SDS011;62920;53.572;10.050;2023-10-09T06:47:34;6.72;;;1.73;;
74471;SDS011;62920;53.572;10.050;2023-10-09T06:50:09;5.88;;;1.50;;
74471;SDS011;62920;53.572;10.050;2023-10-09T06:52:51;5.50;;;2.25;;
74471;SDS011;62920;53.572;10.050;2023-10-09T06:55:35;6.85;;;1.90;;
74471;SDS011;62920;53.572;10.050;2023-10-09T06:58:13;7.05;;;1.92;;
74471;SDS011;62920;53.572;10.050;2023-10-09T07:00:52;6.00;;;1.83;;
74471;SDS011;62920;53.572;10.050;2023-10-09T07:03:24;7.20;;;1.85;;
74471;SDS011;62920;53.572;10.050;2023-10-09T07:06:10;5.05;;;1.80;;
74471;SDS011;62920;53.572;10.050;2023-10-09T07:09:11;7.22;;;2.00;;
74471;SDS011;62920;53.572;10.050;2023-10-09T07:11:40;5.53;;;2.00;;
74471;SDS011;62920;53.572;10.050;2023-10-09T07:16:59;5.50;;;2.22;;
74471;SDS011;62920;53.572;10.050;2023-10-09T07:19:25;10.40;;;1.75;;
74471;SDS011;62920;53.572;10.050;2023-10-09T07:22:23;3.88;;;2.00;;
74471;SDS011;62920;53.572;10.050;2023-10-09T07:24:55;4.07;;;2.05;;
74471;SDS011;62920;53.572;10.050;2023-10-09T07:30:06;6.07;;;1.73;;
74471;SDS011;62920;53.572;10.050;2023-10-09T07:35:44;6.47;;;1.85;;
74471;SDS011;62920;53.572;10.050;2023-10-09T07:38:25;7.57;;;2.78;;
74471;SDS011;62920;53.572;10.050;2023-10-09T07:40:54;4.97;;;2.20;;
74471;SDS011;62920;53.572;10.050;2023-10-09T07:43:33;4.95;;;2.42;;
74471;SDS011;62920;53.572;10.050;2023-10-09T07:46:09;6.97;;;2.65;;
74471;SDS011;62920;53.572;10.050;2023-10-09T07:49:04;6.15;;;2.58;;
74471;SDS011;62920;53.572;10.050;2023-10-09T07:51:38;8.82;;;3.17;;
74471;SDS011;62920;53.572;10.050;2023-10-09T07:56:32;6.20;;;2.80;;
74471;SDS011;62920;53.572;10.050;2023-10-09T07:59:04;7.20;;;3.08;;
74471;SDS011;62920;53.572;10.050;2023-10-09T08:01:35;7.97;;;3.60;;
74471;SDS011;62920;53.572;10.050;2023-10-09T08:04:02;4.97;;;3.15;;
74471;SDS011;62920;53.572;10.050;2023-10-09T08:06:36;5.88;;;3.10;;
74471;SDS011;62920;53.572;10.050;2023-10-09T08:09:07;6.82;;;2.80;;
74471;SDS011;62920;53.572;10.050;2023-10-09T08:11:45;9.88;;;3.80;;
74471;SDS011;62920;53.572;10.050;2023-10-09T08:14:11;5.68;;;2.95;;
74471;SDS011;62920;53.572;10.050;2023-10-09T08:16:56;7.03;;;3.78;;
74471;SDS011;62920;53.572;10.050;2023-10-09T08:19:38;5.78;;;2.83;;
74471;SDS011;62920;53.572;10.050;2023-10-09T08:22:26;5.22;;;2.97;;
74471;SDS011;62920;53.572;10.050;2023-10-09T08:24:55;7.40;;;3.40;;
74471;SDS011;62920;53.572;10.050;2023-10-09T08:27:21;7.70;;;2.95;;
74471;SDS011;62920;53.572;10.050;2023-10-09T08:30:04;7.28;;;2.95;;
74471;SDS011;62920;53.572;10.050;2023-10-09T08:32:57;6.22;;;2.92;;
74471;SDS011;62920;53.572;10.050;2023-10-09T08:38:12;5.40;;;2.25;;
74471;SDS011;62920;53.572;10.050;2023-10-09T08:40:42;4.15;;;2.00;;
74471;SDS011;62920;53.572;10.050;2023-10-09T08:43:21;5.78;;;2.72;;
74471;SDS011;62920;53.572;10.050;2023-10-09T08:45:47;5.47;;;2.58;;
74471;SDS011;62920;53.572;10.050;2023-10-09T08:48:16;4.32;;;2.30;;
74471;SDS011;62920;53.572;10.050;2023-10-09T08:50:43;6.82;;;3.05;;
74471;SDS011;62920;53.572;10.050;2023-10-09T08:53:09;6.85;;;2.33;;
74471;SDS011;62920;53.572;10.050;2023-10-09T08:55:38;5.88;;;2.40;;
74471;SDS011;62920;53.572;10.050;2023-10-09T08:58:05;6.78;;;2.40;;
74471;SDS011;62920;53.572;10.050;2023-10-09T09:00:38;4.63;;;2.50;;
74471;SDS011;62920;53.572;10.050;2023-10-09T09:03:08;6.15;;;2.47;;
74471;SDS011;62920;53.572;10.050;2023-10-09T09:05:33;4.55;;;2.13;;
74471;SDS011;62920;53.572;10.050;2023-10-09T09:08:01;4.63;;;2.28;;
74471;SDS011;62920;53.572;10.050;2023-10-09T09:10:30;5.15;;;2.47;;
74471;SDS011;62920;53.572;10.050;2023-10-09T09:13:03;5.75;;;2.65;;
74471;SDS011;62920;53.572;10.050;2023-10-09T09:15:29;7.20;;;2.90;;
74471;SDS011;62920;53.572;10.050;2023-10-09T09:18:05;5.60;;;2.45;;
74471;SDS011;62920;53.572;10.050;2023-10-09T09:20:31;5.55;;;2.55;;
74471;SDS011;62920;53.572;10.050;2023-10-09T09:23:01;5.03;;;2.72;;
74471;SDS011;62920;53.572;10.050;2023-10-09T09:25:46;7.88;;;3.35;;
74471;SDS011;62920;53.572;10.050;2023-10-09T09:28:46;5.05;;;2.85;;
74471;SDS011;62920;53.572;10.050;2023-10-09T09:31:20;4.97;;;2.88;;
74471;SDS011;62920;53.572;10.050;2023-10-09T09:33:47;5.90;;;3.00;;
74471;SDS011;62920;53.572;10.050;2023-10-09T09:36:23;5.85;;;2.72;;
74471;SDS011;62920;53.572;10.050;2023-10-09T09:38:51;5.15;;;2.50;;
74471;SDS011;62920;53.572;10.050;2023-10-09T09:41:26;6.25;;;2.85;;
74471;SDS011;62920;53.572;10.050;2023-10-09T09:43:58;7.85;;;3.13;;
74471;SDS011;62920;53.572;10.050;2023-10-09T09:46:33;5.38;;;2.90;;
74471;SDS011;62920;53.572;10.050;2023-10-09T09:49:06;6.00;;;3.08;;
74471;SDS011;62920;53.572;10.050;2023-10-09T09:51:41;4.78;;;3.03;;
74471;SDS011;62920;53.572;10.050;2023-10-09T09:54:07;5.65;;;2.88;;
74471;SDS011;62920;53.572;10.050;2023-10-09T09:56:35;4.53;;;2.67;;
74471;SDS011;62920;53.572;10.050;2023-10-09T09:59:03;6.63;;;3.00;;
74471;SDS011;62920;53.572;10.050;2023-10-09T10:01:33;5.85;;;3.10;;
74471;SDS011;62920;53.572;10.050;2023-10-09T10:04:03;4.60;;;2.83;;
74471;SDS011;62920;53.572;10.050;2023-10-09T10:06:30;5.07;;;2.50;;
74471;SDS011;62920;53.572;10.050;2023-10-09T10:08:57;6.03;;;2.90;;
74471;SDS011;62920;53.572;10.050;2023-10-09T10:14:10;6.55;;;2.65;;
74471;SDS011;62920;53.572;10.050;2023-10-09T10:22:44;4.85;;;2.38;;
74471;SDS011;62920;53.572;10.050;2023-10-09T10:28:25;6.18;;;3.20;;
74471;SDS011;62920;53.572;10.050;2023-10-09T10:31:03;4.35;;;2.20;;
74471;SDS011;62920;53.572;10.050;2023-10-09T10:34:11;4.18;;;1.88;;
74471;SDS011;62920;53.572;10.050;2023-10-09T10:36:19;4.65;;;2.53;;
74471;SDS011;62920;53.572;10.050;2023-10-09T10:38:47;4.50;;;2.15;;
74471;SDS011;62920;53.572;10.050;2023-10-09T10:41:34;4.75;;;2.25;;
74471;SDS011;62920;53.572;10.050;2023-10-09T10:44:16;4.03;;;2.20;;
74471;SDS011;62920;53.572;10.050;2023-10-09T10:47:07;3.63;;;1.83;;
74471;SDS011;62920;53.572;10.050;2023-10-09T10:49:54;2.80;;;1.17;;
74471;SDS011;62920;53.572;10.050;2023-10-09T10:52:36;4.03;;;2.00;;
74471;SDS011;62920;53.572;10.050;2023-10-09T10:55:08;4.18;;;1.90;;
74471;SDS011;62920;53.572;10.050;2023-10-09T10:57:54;6.15;;;2.22;;
74471;SDS011;62920;53.572;10.050;2023-10-09T11:00:38;4.35;;;2.00;;
74471;SDS011;62920;53.572;10.050;2023-10-09T11:03:22;4.03;;;1.92;;
74471;SDS011;62920;53.572;10.050;2023-10-09T11:06:00;4.07;;;2.10;;
74471;SDS011;62920;53.572;10.050;2023-10-09T11:08:38;4.22;;;1.80;;
74471;SDS011;62920;53.572;10.050;2023-10-09T11:11:22;3.83;;;1.80;;
74471;SDS011;62920;53.572;10.050;2023-10-09T11:13:48;3.47;;;1.75;;
74471;SDS011;62920;53.572;10.050;2023-10-09T11:16:24;4.00;;;1.80;;
74471;SDS011;62920;53.572;10.050;2023-10-09T11:19:08;3.30;;;1.63;;
74471;SDS011;62920;53.572;10.050;2023-10-09T11:21:58;5.28;;;2.22;;
74471;SDS011;62920;53.572;10.050;2023-10-09T11:24:48;4.63;;;2.25;;
74471;SDS011;62920;53.572;10.050;2023-10-09T11:27:26;4.22;;;2.33;;
74471;SDS011;62920;53.572;10.050;2023-10-09T11:29:57;4.90;;;2.55;;
74471;SDS011;62920;53.572;10.050;2023-10-09T11:32:30;4.70;;;2.30;;
74471;SDS011;62920;53.572;10.050;2023-10-09T11:35:13;4.25;;;2.60;;
74471;SDS011;62920;53.572;10.050;2023-10-09T11:37:44;4.90;;;2.70;;
74471;SDS011;62920;53.572;10.050;2023-10-09T11:40:43;4.15;;;2.38;;
74471;SDS011;62920;53.572;10.050;2023-10-09T11:43:46;4.93;;;2.40;;
74471;SDS011;62920;53.572;10.050;2023-10-09T11:46:19;5.20;;;2.80;;
74471;SDS011;62920;53.572;10.050;2023-10-09T11:52:05;6.90;;;2.15;;
74471;SDS011;62920;53.572;10.050;2023-10-09T11:54:37;3.85;;;1.80;;
74471;SDS011;62920;53.572;10.050;2023-10-09T11:57:03;3.70;;;1.83;;
74471;SDS011;62920;53.572;10.050;2023-10-09T11:59:29;3.22;;;1.80;;
74471;SDS011;62920;53.572;10.050;2023-10-09T12:02:04;3.63;;;1.83;;
74471;SDS011;62920;53.572;10.050;2023-10-09T12:04:30;3.33;;;1.67;;
74471;SDS011;62920;53.572;10.050;2023-10-09T12:06:58;3.80;;;1.70;;
74471;SDS011;62920;53.572;10.050;2023-10-09T12:09:34;3.05;;;1.45;;
74471;SDS011;62920;53.572;10.050;2023-10-09T12:12:03;3.15;;;1.58;;
74471;SDS011;62920;53.572;10.050;2023-10-09T12:14:30;3.15;;;1.50;;
74471;SDS011;62920;53.572;10.050;2023-10-09T12:17:00;3.40;;;1.50;;
74471;SDS011;62920;53.572;10.050;2023-10-09T12:19:31;3.40;;;1.50;;
74471;SDS011;62920;53.572;10.050;2023-10-09T12:22:00;3.78;;;1.52;;
74471;SDS011;62920;53.572;10.050;2023-10-09T12:24:26;3.45;;;1.50;;
74471;SDS011;62920;53.572;10.050;2023-10-09T12:26:55;4.50;;;1.55;;
74471;SDS011;62920;53.572;10.050;2023-10-09T12:29:21;3.78;;;1.60;;
74471;SDS011;62920;53.572;10.050;2023-10-09T12:31:47;3.83;;;1.60;;
74471;SDS011;62920;53.572;10.050;2023-10-09T12:34:12;4.57;;;1.50;;
74471;SDS011;62920;53.572;10.050;2023-10-09T12:36:50;3.03;;;1.40;;
74471;SDS011;62920;53.572;10.050;2023-10-09T12:39:16;3.67;;;1.63;;
74471;SDS011;62920;53.572;10.050;2023-10-09T12:41:44;3.90;;;1.63;;
74471;SDS011;62920;53.572;10.050;2023-10-09T12:44:10;4.35;;;1.85;;
74471;SDS011;62920;53.572;10.050;2023-10-09T12:46:40;2.72;;;1.27;;
74471;SDS011;62920;53.572;10.050;2023-10-09T12:49:06;3.80;;;1.95;;
74471;SDS011;62920;53.572;10.050;2023-10-09T12:51:31;3.80;;;1.85;;
74471;SDS011;62920;53.572;10.050;2023-10-09T12:53:57;3.67;;;2.08;;
74471;SDS011;62920;53.572;10.050;2023-10-09T12:56:25;4.75;;;2.20;;
74471;SDS011;62920;53.572;10.050;2023-10-09T12:59:03;6.35;;;2.58;;
74471;SDS011;62920;53.572;10.050;2023-10-09T13:01:33;4.35;;;1.70;;
74471;SDS011;62920;53.572;10.050;2023-10-09T13:04:11;3.50;;;1.75;;
74471;SDS011;62920;53.572;10.050;2023-10-09T13:06:40;4.30;;;2.10;;
74471;SDS011;62920;53.572;10.050;2023-10-09T13:09:09;3.80;;;1.90;;
74471;SDS011;62920;53.572;10.050;2023-10-09T13:11:39;3.97;;;2.00;;
74471;SDS011;62920;53.572;10.050;2023-10-09T13:14:09;4.00;;;1.90;;
74471;SDS011;62920;53.572;10.050;2023-10-09T13:16:41;4.80;;;2.22;;
74471;SDS011;62920;53.572;10.050;2023-10-09T13:19:07;4.38;;;1.85;;
74471;SDS011;62920;53.572;10.050;2023-10-09T13:21:35;4.15;;;1.88;;
74471;SDS011;62920;53.572;10.050;2023-10-09T13:24:02;4.00;;;2.08;;
74471;SDS011;62920;53.572;10.050;2023-10-09T13:26:28;3.67;;;2.15;;
74471;SDS011;62920;53.572;10.050;2023-10-09T13:28:55;3.70;;;2.00;;
74471;SDS011;62920;53.572;10.050;2023-10-09T13:31:22;4.10;;;2.20;;
74471;SDS011;62920;53.572;10.050;2023-10-09T13:33:52;4.10;;;2.30;;
74471;SDS011;62920;53.572;10.050;2023-10-09T13:36:24;4.20;;;2.28;;
74471;SDS011;62920;53.572;10.050;2023-10-09T13:38:57;4.47;;;2.42;;
74471;SDS011;62920;53.572;10.050;2023-10-09T13:41:23;4.53;;;2.33;;
74471;SDS011;62920;53.572;10.050;2023-10-09T13:43:54;5.05;;;2.50;;
74471;SDS011;62920;53.572;10.050;2023-10-09T13:46:21;5.90;;;2.47;;
74471;SDS011;62920;53.572;10.050;2023-10-09T13:48:47;4.50;;;2.35;;
74471;SDS011;62920;53.572;10.050;2023-10-09T13:51:14;5.60;;;2.67;;
74471;SDS011;62920;53.572;10.050;2023-10-09T13:53:46;5.95;;;2.90;;
74471;SDS011;62920;53.572;10.050;2023-10-09T13:56:15;4.90;;;2.90;;
74471;SDS011;62920;53.572;10.050;2023-10-09T13:58:47;5.75;;;2.70;;
74471;SDS011;62920;53.572;10.050;2023-10-09T14:01:14;5.28;;;3.10;;
74471;SDS011;62920;53.572;10.050;2023-10-09T14:03:51;4.93;;;2.90;;
74471;SDS011;62920;53.572;10.050;2023-10-09T14:06:18;5.40;;;3.20;;
74471;SDS011;62920;53.572;10.050;2023-10-09T14:08:55;5.90;;;3.33;;
74471;SDS011;62920;53.572;10.050;2023-10-09T14:11:20;5.22;;;3.28;;
74471;SDS011;62920;53.572;10.050;2023-10-09T14:13:46;5.57;;;3.28;;
74471;SDS011;62920;53.572;10.050;2023-10-09T14:16:13;5.38;;;3.17;;
74471;SDS011;62920;53.572;10.050;2023-10-09T14:18:52;5.03;;;3.00;;
74471;SDS011;62920;53.572;10.050;2023-10-09T14:21:19;4.88;;;2.85;;
74471;SDS011;62920;53.572;10.050;2023-10-09T14:26:12;6.40;;;3.15;;
74471;SDS011;62920;53.572;10.050;2023-10-09T14:28:38;6.53;;;3.30;;
74471;SDS011;62920;53.572;10.050;2023-10-09T14:31:03;6.00;;;3.03;;
74471;SDS011;62920;53.572;10.050;2023-10-09T14:33:30;5.53;;;3.58;;
74471;SDS011;62920;53.572;10.050;2023-10-09T14:36:01;4.93;;;3.20;;
74471;SDS011;62920;53.572;10.050;2023-10-09T14:38:27;5.95;;;3.58;;
74471;SDS011;62920;53.572;10.050;2023-10-09T14:40:57;5.63;;;3.33;;
74471;SDS011;62920;53.572;10.050;2023-10-09T14:43:25;7.60;;;4.88;;
74471;SDS011;62920;53.572;10.050;2023-10-09T14:45:58;5.95;;;4.10;;
74471;SDS011;62920;53.572;10.050;2023-10-09T14:48:23;7.32;;;4.45;;
74471;SDS011;62920;53.572;10.050;2023-10-09T14:50:55;7.22;;;4.75;;
74471;SDS011;62920;53.572;10.050;2023-10-09T14:53:27;8.57;;;4.88;;
74471;SDS011;62920;53.572;10.050;2023-10-09T14:55:56;8.85;;;4.45;;
74471;SDS011;62920;53.572;10.050;2023-10-09T14:58:21;7.10;;;4.13;;
74471;SDS011;62920;53.572;10.050;2023-10-09T15:00:51;7.80;;;4.57;;
74471;SDS011;62920;53.572;10.050;2023-10-09T15:03:16;7.10;;;4.32;;
74471;SDS011;62920;53.572;10.050;2023-10-09T15:05:44;8.63;;;4.20;;
74471;SDS011;62920;53.572;10.050;2023-10-09T15:08:10;7.50;;;4.22;;
74471;SDS011;62920;53.572;10.050;2023-10-09T15:10:45;7.43;;;4.22;;
74471;SDS011;62920;53.572;10.050;2023-10-09T15:13:12;7.22;;;4.65;;
74471;SDS011;62920;53.572;10.050;2023-10-09T15:15:41;7.13;;;4.38;;
74471;SDS011;62920;53.572;10.050;2023-10-09T15:18:07;7.82;;;4.80;;
74471;SDS011;62920;53.572;10.050;2023-10-09T15:20:34;9.15;;;4.47;;
74471;SDS011;62920;53.572;10.050;2023-10-09T15:23:00;8.68;;;4.88;;
74471;SDS011;62920;53.572;10.050;2023-10-09T15:25:26;7.07;;;4.47;;
74471;SDS011;62920;53.572;10.050;2023-10-09T15:27:51;8.75;;;4.63;;
74471;SDS011;62920;53.572;10.050;2023-10-09T15:30:17;7.03;;;4.85;;
74471;SDS011;62920;53.572;10.050;2023-10-09T15:32:42;8.35;;;4.68;;
74471;SDS011;62920;53.572;10.050;2023-10-09T15:35:08;6.82;;;4.20;;
74471;SDS011;62920;53.572;10.050;2023-10-09T15:37:37;8.98;;;5.22;;
74471;SDS011;62920;53.572;10.050;2023-10-09T15:40:05;7.97;;;5.00;;
74471;SDS011;62920;53.572;10.050;2023-10-09T15:42:31;8.20;;;4.80;;
74471;SDS011;62920;53.572;10.050;2023-10-09T15:44:56;10.02;;;5.38;;
74471;SDS011;62920;53.572;10.050;2023-10-09T15:47:21;8.93;;;5.40;;
74471;SDS011;62920;53.572;10.050;2023-10-09T15:49:47;13.00;;;5.38;;
74471;SDS011;62920;53.572;10.050;2023-10-09T15:52:12;10.05;;;5.60;;